Kinsale, Virginia
Current Conditions -  °F | °C
As of 4:53 PM on Monday 24 Nov 2014 (Local Time) from KNUI Reporting Station
Few Clouds Few Clouds  
Wind Chill: 20°   Ceiling: Unl
Heat Index: 20°   Visibility: 10mi
Dew Point: 12°   Wind: 12mph
Humidity: 61%   Direction: 190°S
Pressure: 29.7"   Gusts: NA
Location:  38.03°N, 76.58°W
Report Text: KNUI 242153Z AUTO 19010KT 10SM FEW110 20/12 A2970 RMK AO2 SLP057 T02000122
Loading
Personal Weather Stations






























Interactive Weather Map New forecast layout! Learn more

10-Day Weather Forecast

Advertisements
Track Severe Weather on mobile